createdAt,value
2023-01-08T00:00:25.002Z,996.52
2023-01-08T00:01:24.909Z,996.54
2023-01-08T00:02:24.896Z,996.53
2023-01-08T00:03:25.139Z,996.50
2023-01-08T00:04:24.847Z,996.49
2023-01-08T00:05:24.860Z,996.52
2023-01-08T00:06:24.836Z,996.52
2023-01-08T00:07:24.831Z,996.57
2023-01-08T00:08:24.824Z,996.60
2023-01-08T00:09:25.831Z,996.54
2023-01-08T00:10:24.800Z,996.49
2023-01-08T00:11:24.781Z,996.54
2023-01-08T00:12:24.757Z,996.57
2023-01-08T00:13:24.773Z,996.56
2023-01-08T00:14:24.763Z,996.49
2023-01-08T00:15:24.830Z,996.48
2023-01-08T00:16:24.768Z,996.54
2023-01-08T00:17:24.708Z,996.51
2023-01-08T00:18:24.776Z,996.56
2023-01-08T00:19:24.709Z,996.47
2023-01-08T00:20:24.670Z,996.45
2023-01-08T00:21:24.674Z,996.46
2023-01-08T00:22:24.663Z,996.40
2023-01-08T00:23:24.659Z,996.34
2023-01-08T00:24:24.695Z,996.26
2023-01-08T00:25:24.634Z,996.31
2023-01-08T00:26:24.642Z,996.35
2023-01-08T00:27:24.598Z,996.32
2023-01-08T00:28:24.608Z,996.33
2023-01-08T00:29:24.591Z,996.32
2023-01-08T00:30:24.643Z,996.24
2023-01-08T00:31:24.738Z,996.22
2023-01-08T00:32:24.545Z,996.20
2023-01-08T00:33:24.540Z,996.21
2023-01-08T00:34:24.523Z,996.22
2023-01-08T00:35:24.530Z,996.22
2023-01-08T00:36:24.507Z,996.18
2023-01-08T00:37:24.520Z,996.16
2023-01-08T00:38:25.483Z,996.19
2023-01-08T00:39:24.513Z,996.18
2023-01-08T00:40:24.468Z,996.20
2023-01-08T00:41:24.441Z,996.21
2023-01-08T00:42:24.471Z,996.18
2023-01-08T00:43:24.438Z,996.17
2023-01-08T00:44:25.410Z,996.14
2023-01-08T00:45:24.407Z,996.13
2023-01-08T00:46:25.441Z,996.02
2023-01-08T00:47:24.533Z,996.01
2023-01-08T00:48:24.377Z,996.07
2023-01-08T00:49:25.367Z,996.05
2023-01-08T00:50:24.361Z,996.04
2023-01-08T00:51:24.359Z,996.02
2023-01-08T00:52:24.326Z,996.05
2023-01-08T00:53:25.340Z,996.05
2023-01-08T00:54:24.318Z,996.06
2023-01-08T00:55:24.317Z,996.01
2023-01-08T00:56:24.316Z,995.98
2023-01-08T00:57:25.266Z,996.03
2023-01-08T00:58:24.266Z,996.00
2023-01-08T00:59:24.280Z,996.00
2023-01-08T01:00:24.264Z,996.00
2023-01-08T01:01:24.374Z,995.93
2023-01-08T01:02:24.264Z,995.94
2023-01-08T01:03:25.246Z,995.96
2023-01-08T01:04:24.354Z,995.92
2023-01-08T01:05:25.206Z,995.88
2023-01-08T01:06:24.190Z,995.93
2023-01-08T01:07:24.200Z,995.85
2023-01-08T01:08:24.144Z,995.86
2023-01-08T01:09:24.149Z,995.86
2023-01-08T01:10:24.163Z,995.77
2023-01-08T01:11:24.138Z,995.88
2023-01-08T01:12:24.144Z,995.85
2023-01-08T01:13:25.115Z,995.89
2023-01-08T01:14:24.095Z,995.84
2023-01-08T01:15:24.075Z,995.75
2023-01-08T01:16:24.152Z,995.76
2023-01-08T01:17:24.063Z,995.75
2023-01-08T01:18:24.053Z,995.75
2023-01-08T01:19:24.142Z,995.80
2023-01-08T01:20:24.041Z,995.74
2023-01-08T01:21:24.021Z,995.76
2023-01-08T01:22:24.043Z,995.80
2023-01-08T01:23:24.004Z,995.88
2023-01-08T01:24:23.994Z,995.87
2023-01-08T01:25:24.010Z,995.87
2023-01-08T01:26:23.959Z,995.91
2023-01-08T01:27:23.942Z,995.94
2023-01-08T01:28:24.948Z,995.83
2023-01-08T01:29:23.938Z,995.82
2023-01-08T01:30:23.928Z,995.84
2023-01-08T01:31:23.909Z,995.86
2023-01-08T01:32:23.898Z,995.82
2023-01-08T01:33:23.903Z,995.79
2023-01-08T01:34:23.872Z,995.82
2023-01-08T01:35:23.990Z,995.73
2023-01-08T01:36:23.883Z,995.76
2023-01-08T01:37:23.829Z,995.78
2023-01-08T01:38:23.821Z,995.72
2023-01-08T01:39:23.850Z,995.78
2023-01-08T01:40:23.826Z,995.76
2023-01-08T01:41:23.800Z,995.74
2023-01-08T01:42:23.803Z,995.77
2023-01-08T01:43:23.777Z,995.74
2023-01-08T01:44:24.751Z,995.75
2023-01-08T01:45:23.753Z,995.78
2023-01-08T01:46:23.784Z,995.78
2023-01-08T01:47:23.752Z,995.81
2023-01-08T01:48:24.718Z,995.82
2023-01-08T01:49:23.700Z,995.80
2023-01-08T01:50:23.707Z,995.82
2023-01-08T01:51:23.786Z,995.76
2023-01-08T01:52:23.701Z,995.74
2023-01-08T01:53:23.680Z,995.77
2023-01-08T01:54:23.710Z,995.72
2023-01-08T01:55:23.644Z,995.73
2023-01-08T01:56:23.690Z,995.77
2023-01-08T01:57:23.617Z,995.68
2023-01-08T01:58:23.615Z,995.67
2023-01-08T01:59:23.629Z,995.64
2023-01-08T02:00:23.575Z,995.67
2023-01-08T02:01:23.715Z,995.62
2023-01-08T02:02:23.710Z,995.64
2023-01-08T02:03:23.596Z,995.67
2023-01-08T02:04:23.640Z,995.70
2023-01-08T02:05:23.557Z,995.66
2023-01-08T02:06:24.502Z,995.64
2023-01-08T02:07:23.663Z,995.63
2023-01-08T02:08:23.496Z,995.66
2023-01-08T02:09:23.508Z,995.68
2023-01-08T02:10:23.489Z,995.60
2023-01-08T02:11:23.458Z,995.62
2023-01-08T02:12:23.447Z,995.62
2023-01-08T02:13:23.425Z,995.57
2023-01-08T02:14:23.440Z,995.54
2023-01-08T02:15:23.455Z,995.62
2023-01-08T02:16:23.409Z,995.68
2023-01-08T02:17:24.394Z,995.70
2023-01-08T02:18:23.386Z,995.64
2023-01-08T02:19:23.385Z,995.64
2023-01-08T02:20:23.355Z,995.64
2023-01-08T02:21:23.358Z,995.57
2023-01-08T02:22:24.339Z,995.55
2023-01-08T02:23:23.447Z,995.54
2023-01-08T02:24:23.336Z,995.55
2023-01-08T02:25:23.321Z,995.48
2023-01-08T02:26:23.303Z,995.47
2023-01-08T02:27:23.285Z,995.46
2023-01-08T02:28:23.295Z,995.52
2023-01-08T02:29:23.264Z,995.46
2023-01-08T02:30:23.250Z,995.49
2023-01-08T02:31:23.236Z,995.57
2023-01-08T02:32:23.257Z,995.46
2023-01-08T02:33:23.226Z,995.48
2023-01-08T02:34:24.193Z,995.44
2023-01-08T02:35:23.227Z,995.41
2023-01-08T02:36:23.187Z,995.34
2023-01-08T02:37:23.201Z,995.34
2023-01-08T02:38:23.149Z,995.26
2023-01-08T02:39:24.290Z,995.21
2023-01-08T02:40:23.167Z,995.20
2023-01-08T02:41:23.119Z,995.20
2023-01-08T02:42:23.157Z,995.22
2023-01-08T02:43:23.107Z,995.17
2023-01-08T02:44:23.106Z,995.14
2023-01-08T02:45:23.112Z,995.23
2023-01-08T02:46:23.082Z,995.15
2023-01-08T02:47:23.071Z,995.17
2023-01-08T02:48:23.070Z,995.15
2023-01-08T02:49:23.064Z,995.17
2023-01-08T02:50:23.034Z,995.10
2023-01-08T02:51:23.032Z,995.10
2023-01-08T02:52:23.029Z,995.13
2023-01-08T02:53:23.005Z,995.02
2023-01-08T02:54:22.994Z,995.02
2023-01-08T02:55:22.984Z,995.00
2023-01-08T02:56:22.962Z,995.04
2023-01-08T02:57:22.974Z,994.96
2023-01-08T02:58:22.946Z,995.01
2023-01-08T02:59:22.942Z,995.05
2023-01-08T03:00:22.923Z,995.04
2023-01-08T03:01:23.139Z,995.02
2023-01-08T03:02:24.017Z,995.12
2023-01-08T03:03:23.915Z,995.07
2023-01-08T03:04:23.932Z,995.08
2023-01-08T03:05:22.851Z,995.12
2023-01-08T03:06:23.884Z,995.05
2023-01-08T03:07:22.882Z,995.04
2023-01-08T03:08:23.712Z,995.13
2023-01-08T03:09:22.860Z,995.11
2023-01-08T03:10:22.825Z,995.05
2023-01-08T03:11:22.948Z,995.05
2023-01-08T03:12:22.801Z,995.08
2023-01-08T03:13:22.775Z,995.11
2023-01-08T03:14:22.788Z,995.02
2023-01-08T03:15:23.762Z,994.99
2023-01-08T03:16:22.759Z,995.02
2023-01-08T03:17:23.718Z,995.00
2023-01-08T03:18:23.727Z,995.05
2023-01-08T03:19:22.731Z,995.08
2023-01-08T03:20:22.723Z,995.14
2023-01-08T03:21:22.680Z,995.08
2023-01-08T03:22:22.669Z,995.02
2023-01-08T03:23:22.697Z,995.13
2023-01-08T03:24:22.658Z,995.14
2023-01-08T03:25:22.651Z,995.20
2023-01-08T03:26:22.681Z,995.20
2023-01-08T03:27:22.859Z,995.15
2023-01-08T03:28:22.603Z,995.24
2023-01-08T03:29:22.634Z,995.21
2023-01-08T03:30:22.578Z,995.24
2023-01-08T03:31:23.591Z,995.21
2023-01-08T03:32:22.595Z,995.24
2023-01-08T03:33:22.546Z,995.21
2023-01-08T03:34:22.541Z,995.19
2023-01-08T03:35:22.537Z,995.08
2023-01-08T03:36:22.560Z,995.10
2023-01-08T03:37:22.531Z,995.09
2023-01-08T03:38:22.507Z,995.00
2023-01-08T03:39:22.501Z,994.95
2023-01-08T03:40:22.495Z,994.90
2023-01-08T03:41:22.486Z,994.83
2023-01-08T03:42:22.453Z,994.91
2023-01-08T03:43:22.599Z,994.86
2023-01-08T03:44:22.469Z,994.88
2023-01-08T03:45:23.441Z,994.84
2023-01-08T03:46:22.471Z,994.87
2023-01-08T03:47:22.427Z,994.93
2023-01-08T03:48:22.729Z,995.01
2023-01-08T03:49:22.405Z,994.90
2023-01-08T03:50:22.370Z,994.95
2023-01-08T03:51:23.393Z,994.93
2023-01-08T03:52:22.352Z,994.93
2023-01-08T03:53:22.332Z,994.98
2023-01-08T03:54:22.339Z,994.88
2023-01-08T03:55:22.321Z,994.89
2023-01-08T03:56:23.309Z,994.91
2023-01-08T03:57:22.305Z,994.84
2023-01-08T03:58:30.067Z,994.89
2023-01-08T03:59:22.304Z,994.84
2023-01-08T04:00:22.263Z,994.84
2023-01-08T04:01:22.385Z,994.80
2023-01-08T04:02:22.514Z,994.80
2023-01-08T04:03:22.217Z,994.82
2023-01-08T04:04:22.278Z,994.83
2023-01-08T04:05:22.243Z,994.86
2023-01-08T04:06:22.201Z,995.00
2023-01-08T04:07:22.190Z,994.85
2023-01-08T04:08:22.173Z,994.91
2023-01-08T04:09:22.165Z,994.87
2023-01-08T04:10:22.166Z,994.79
2023-01-08T04:11:22.155Z,994.84
2023-01-08T04:12:22.144Z,994.73
2023-01-08T04:13:22.135Z,994.84
2023-01-08T04:14:22.221Z,994.76
2023-01-08T04:15:22.105Z,994.79
2023-01-08T04:16:22.108Z,994.79
2023-01-08T04:17:23.083Z,994.75
2023-01-08T04:18:23.061Z,994.76
2023-01-08T04:19:22.063Z,994.80
2023-01-08T04:20:23.047Z,994.76
2023-01-08T04:21:22.029Z,994.77
2023-01-08T04:22:22.042Z,994.69
2023-01-08T04:23:22.010Z,994.74
2023-01-08T04:24:22.006Z,994.86
2023-01-08T04:25:21.985Z,994.85
2023-01-08T04:26:22.991Z,994.85
2023-01-08T04:27:21.993Z,994.81
2023-01-08T04:28:21.944Z,994.89
2023-01-08T04:29:21.947Z,994.88
2023-01-08T04:30:22.041Z,994.84
2023-01-08T04:31:22.035Z,994.87
2023-01-08T04:32:21.917Z,994.80
2023-01-08T04:33:21.889Z,994.73
2023-01-08T04:34:22.899Z,994.70
2023-01-08T04:35:21.883Z,994.72
2023-01-08T04:36:22.867Z,994.77
2023-01-08T04:37:21.860Z,994.75
2023-01-08T04:38:21.863Z,994.71
2023-01-08T04:39:21.837Z,994.77
2023-01-08T04:40:21.808Z,994.81
2023-01-08T04:41:21.839Z,994.72
2023-01-08T04:42:21.809Z,994.73
2023-01-08T04:43:21.790Z,994.76
2023-01-08T04:44:21.799Z,994.68
2023-01-08T04:45:21.764Z,994.66
2023-01-08T04:46:21.992Z,994.68
2023-01-08T04:47:21.758Z,994.65
2023-01-08T04:48:21.722Z,994.67
2023-01-08T04:49:21.729Z,994.68
2023-01-08T04:50:21.727Z,994.57
2023-01-08T04:51:21.734Z,994.64
2023-01-08T04:52:22.697Z,994.56
2023-01-08T04:53:21.677Z,994.63
2023-01-08T04:54:21.660Z,994.68
2023-01-08T04:55:21.661Z,994.70
2023-01-08T04:56:22.664Z,994.69
2023-01-08T04:57:21.623Z,994.64
2023-01-08T04:58:21.626Z,994.66
2023-01-08T04:59:21.643Z,994.64
2023-01-08T05:00:21.707Z,994.64
2023-01-08T05:01:21.770Z,994.62
2023-01-08T05:02:22.014Z,994.61
2023-01-08T05:03:21.668Z,994.56
2023-01-08T05:04:21.554Z,994.61
2023-01-08T05:05:22.578Z,994.51
2023-01-08T05:06:21.533Z,994.52
2023-01-08T05:07:21.513Z,994.45
2023-01-08T05:08:22.501Z,994.44
2023-01-08T05:09:21.503Z,994.51
2023-01-08T05:10:21.508Z,994.46
2023-01-08T05:11:21.520Z,994.46
2023-01-08T05:12:21.461Z,994.47
2023-01-08T05:13:22.450Z,994.58
2023-01-08T05:14:21.457Z,994.52
2023-01-08T05:15:21.437Z,994.41
2023-01-08T05:16:21.530Z,994.40
2023-01-08T05:17:21.437Z,994.38
2023-01-08T05:18:21.515Z,994.37
2023-01-08T05:19:21.397Z,994.38
2023-01-08T05:20:21.381Z,994.38
2023-01-08T05:21:21.376Z,994.44
2023-01-08T05:22:22.388Z,994.39
2023-01-08T05:23:21.350Z,994.40
2023-01-08T05:24:22.380Z,994.35
2023-01-08T05:25:21.319Z,994.36
2023-01-08T05:26:21.345Z,994.42
2023-01-08T05:27:21.295Z,994.36
2023-01-08T05:28:21.302Z,994.29
2023-01-08T05:29:21.304Z,994.32
2023-01-08T05:30:22.281Z,994.33
2023-01-08T05:31:22.381Z,994.29
2023-01-08T05:32:21.255Z,994.34
2023-01-08T05:33:21.238Z,994.29
2023-01-08T05:34:21.360Z,994.33
2023-01-08T05:35:21.249Z,994.33
2023-01-08T05:36:22.224Z,994.33
2023-01-08T05:37:21.184Z,994.23
2023-01-08T05:38:22.180Z,994.18
2023-01-08T05:39:21.178Z,994.22
2023-01-08T05:40:21.165Z,994.18
2023-01-08T05:41:21.141Z,994.20
2023-01-08T05:42:22.171Z,994.22
2023-01-08T05:43:21.145Z,994.18
2023-01-08T05:44:21.108Z,994.21
2023-01-08T05:45:21.117Z,994.21
2023-01-08T05:46:21.175Z,994.14
2023-01-08T05:47:21.088Z,994.16
2023-01-08T05:48:21.114Z,994.16
2023-01-08T05:49:21.072Z,994.23
2023-01-08T05:50:22.197Z,994.26
2023-01-08T05:51:21.061Z,994.26
2023-01-08T05:52:22.012Z,994.19
2023-01-08T05:53:21.009Z,994.20
2023-01-08T05:54:21.042Z,994.16
2023-01-08T05:55:21.009Z,994.18
2023-01-08T05:56:20.978Z,994.11
2023-01-08T05:57:21.998Z,994.11
2023-01-08T05:58:20.959Z,994.09
2023-01-08T05:59:20.942Z,994.07
2023-01-08T06:00:20.975Z,994.10
2023-01-08T06:01:20.938Z,994.02
2023-01-08T06:02:22.019Z,994.02
2023-01-08T06:03:20.920Z,994.09
2023-01-08T06:04:21.927Z,994.10
2023-01-08T06:05:21.901Z,994.11
2023-01-08T06:06:20.994Z,994.19
2023-01-08T06:07:20.896Z,994.17
2023-01-08T06:08:20.851Z,994.15
2023-01-08T06:09:20.865Z,994.14
2023-01-08T06:10:20.831Z,994.15
2023-01-08T06:11:20.809Z,994.18
2023-01-08T06:12:20.840Z,994.21
2023-01-08T06:13:20.795Z,994.19
2023-01-08T06:14:21.776Z,994.22
2023-01-08T06:15:21.794Z,994.24
2023-01-08T06:16:20.814Z,994.30
2023-01-08T06:17:20.763Z,994.34
2023-01-08T06:18:21.743Z,994.29
2023-01-08T06:19:20.741Z,994.31
2023-01-08T06:20:20.732Z,994.32
2023-01-08T06:21:20.728Z,994.27
2023-01-08T06:22:20.825Z,994.33
2023-01-08T06:23:20.692Z,994.29
2023-01-08T06:24:21.679Z,994.29
2023-01-08T06:25:20.666Z,994.23
2023-01-08T06:26:20.667Z,994.25
2023-01-08T06:27:20.634Z,994.26
2023-01-08T06:28:20.625Z,994.20
2023-01-08T06:29:20.627Z,994.26
2023-01-08T06:30:20.605Z,994.22
2023-01-08T06:31:21.668Z,994.27
2023-01-08T06:32:21.581Z,994.28
2023-01-08T06:33:21.460Z,994.25
2023-01-08T06:34:20.606Z,994.31
2023-01-08T06:35:20.548Z,994.33
2023-01-08T06:36:20.540Z,994.36
2023-01-08T06:37:20.530Z,994.38
2023-01-08T06:38:20.707Z,994.32
2023-01-08T06:39:20.540Z,994.31
2023-01-08T06:40:20.486Z,994.31
2023-01-08T06:41:20.505Z,994.27
2023-01-08T06:42:20.472Z,994.24
2023-01-08T06:43:23.816Z,994.27
2023-01-08T06:44:20.440Z,994.26
2023-01-08T06:45:20.456Z,994.30
2023-01-08T06:46:21.437Z,994.27
2023-01-08T06:47:20.442Z,994.25
2023-01-08T06:48:20.407Z,994.30
2023-01-08T06:49:20.402Z,994.24
2023-01-08T06:50:20.408Z,994.19
2023-01-08T06:51:20.360Z,994.20
2023-01-08T06:52:20.365Z,994.24
2023-01-08T06:53:20.365Z,994.18
2023-01-08T06:54:20.463Z,994.22
2023-01-08T06:55:20.348Z,994.20
2023-01-08T06:56:20.366Z,994.22
2023-01-08T06:57:20.296Z,994.20
2023-01-08T06:58:20.290Z,994.23
2023-01-08T06:59:20.308Z,994.24
2023-01-08T07:00:21.286Z,994.33
2023-01-08T07:01:20.427Z,994.28
2023-01-08T07:02:20.630Z,994.34
2023-01-08T07:03:20.315Z,994.31
2023-01-08T07:04:21.270Z,994.30
2023-01-08T07:05:21.241Z,994.28
2023-01-08T07:06:20.207Z,994.24
2023-01-08T07:07:21.230Z,994.25
2023-01-08T07:08:20.201Z,994.29
2023-01-08T07:09:20.188Z,994.27
2023-01-08T07:10:20.404Z,994.26
2023-01-08T07:11:20.139Z,994.21
2023-01-08T07:12:20.165Z,994.12
2023-01-08T07:13:21.137Z,994.16
2023-01-08T07:14:21.128Z,994.19
2023-01-08T07:15:20.122Z,994.17
2023-01-08T07:16:20.145Z,994.08
2023-01-08T07:17:20.132Z,994.07
2023-01-08T07:18:20.089Z,994.05
2023-01-08T07:19:20.084Z,994.02
2023-01-08T07:20:21.067Z,994.02
2023-01-08T07:21:20.033Z,994.04
2023-01-08T07:22:20.037Z,994.12
2023-01-08T07:23:20.020Z,994.13
2023-01-08T07:24:20.038Z,994.21
2023-01-08T07:25:21.000Z,994.25
2023-01-08T07:26:21.103Z,994.27
2023-01-08T07:27:19.980Z,994.18
2023-01-08T07:28:19.950Z,994.26
2023-01-08T07:29:19.955Z,994.23
2023-01-08T07:30:29.273Z,994.26
2023-01-08T07:31:21.053Z,994.20
2023-01-08T07:32:19.908Z,994.19
2023-01-08T07:33:19.923Z,994.21
2023-01-08T07:34:19.901Z,994.12
2023-01-08T07:35:19.895Z,994.08
2023-01-08T07:36:19.903Z,994.05
2023-01-08T07:37:19.850Z,994.07
2023-01-08T07:38:19.868Z,994.16
2023-01-08T07:39:19.854Z,994.07
2023-01-08T07:40:20.848Z,994.05
2023-01-08T07:41:19.853Z,993.99
2023-01-08T07:42:19.925Z,993.93
2023-01-08T07:43:19.799Z,993.91
2023-01-08T07:44:19.821Z,993.94
2023-01-08T07:45:19.813Z,993.85
2023-01-08T07:46:19.839Z,993.92
2023-01-08T07:47:20.775Z,993.79
2023-01-08T07:48:19.736Z,993.87
2023-01-08T07:49:20.745Z,993.77
2023-01-08T07:50:19.726Z,993.79
2023-01-08T07:51:19.708Z,993.77
2023-01-08T07:52:19.704Z,993.83
2023-01-08T07:53:19.701Z,993.78
2023-01-08T07:54:19.686Z,993.66
2023-01-08T07:55:19.735Z,993.64
2023-01-08T07:56:19.648Z,993.67
2023-01-08T07:57:19.630Z,993.69
2023-01-08T07:58:20.728Z,993.60
2023-01-08T07:59:19.632Z,993.62
2023-01-08T08:00:19.658Z,993.61
2023-01-08T08:01:19.721Z,993.64
2023-01-08T08:02:19.890Z,993.66
2023-01-08T08:03:19.615Z,993.77
2023-01-08T08:04:19.572Z,993.70
2023-01-08T08:05:19.540Z,993.74
2023-01-08T08:06:19.569Z,993.68
2023-01-08T08:07:27.164Z,993.68
2023-01-08T08:08:19.544Z,993.72
2023-01-08T08:09:19.527Z,993.66
2023-01-08T08:10:19.492Z,993.65
2023-01-08T08:11:19.479Z,993.75
2023-01-08T08:12:19.489Z,993.74
2023-01-08T08:13:19.454Z,993.78
2023-01-08T08:14:19.587Z,993.78
2023-01-08T08:15:19.467Z,993.77
2023-01-08T08:16:20.497Z,993.81
2023-01-08T08:17:19.415Z,993.86
2023-01-08T08:18:19.411Z,993.88
2023-01-08T08:19:19.450Z,993.92
2023-01-08T08:20:19.376Z,993.92
2023-01-08T08:21:19.373Z,993.91
2023-01-08T08:22:19.396Z,993.90
2023-01-08T08:23:19.368Z,993.88
2023-01-08T08:24:19.342Z,993.97
2023-01-08T08:25:20.373Z,993.92
2023-01-08T08:26:19.336Z,993.90
2023-01-08T08:27:19.324Z,993.93
2023-01-08T08:28:19.312Z,993.94
2023-01-08T08:29:19.291Z,993.93
2023-01-08T08:30:19.394Z,993.95
2023-01-08T08:31:19.330Z,993.99
2023-01-08T08:32:19.275Z,993.99
2023-01-08T08:33:20.229Z,994.00
2023-01-08T08:34:19.221Z,994.09
2023-01-08T08:35:19.259Z,994.08
2023-01-08T08:36:19.232Z,994.16
2023-01-08T08:37:19.220Z,994.18
2023-01-08T08:38:19.203Z,994.25
2023-01-08T08:39:19.196Z,994.20
2023-01-08T08:40:19.196Z,994.23
2023-01-08T08:41:19.138Z,994.21
2023-01-08T08:42:20.153Z,994.19
2023-01-08T08:43:20.132Z,994.21
2023-01-08T08:44:19.128Z,994.20
2023-01-08T08:45:20.104Z,994.24
2023-01-08T08:46:19.282Z,994.19
2023-01-08T08:47:19.084Z,994.15
2023-01-08T08:48:19.092Z,994.21
2023-01-08T08:49:19.101Z,994.20
2023-01-08T08:50:19.062Z,994.20
2023-01-08T08:51:19.060Z,994.15
2023-01-08T08:52:19.019Z,994.17
2023-01-08T08:53:19.021Z,994.13
2023-01-08T08:54:20.045Z,994.17
2023-01-08T08:55:19.001Z,994.11
2023-01-08T08:56:18.981Z,994.09
2023-01-08T08:57:18.996Z,994.11
2023-01-08T08:58:18.999Z,994.06
2023-01-08T08:59:18.955Z,994.03
2023-01-08T09:00:19.944Z,994.02
2023-01-08T09:01:19.066Z,994.07
2023-01-08T09:02:19.253Z,994.05
2023-01-08T09:03:18.972Z,994.07
2023-01-08T09:04:18.913Z,994.03
2023-01-08T09:05:18.876Z,994.04
2023-01-08T09:06:18.871Z,993.95
2023-01-08T09:07:18.868Z,993.96
2023-01-08T09:08:18.871Z,994.03
2023-01-08T09:09:18.874Z,994.12
2023-01-08T09:10:18.852Z,994.09
2023-01-08T09:11:18.809Z,994.05
2023-01-08T09:12:19.809Z,993.93
2023-01-08T09:13:18.791Z,993.99
2023-01-08T09:14:18.828Z,994.06
2023-01-08T09:15:19.778Z,994.05
2023-01-08T09:16:18.785Z,993.99
2023-01-08T09:17:18.758Z,994.00
2023-01-08T09:18:18.878Z,993.99
2023-01-08T09:19:18.739Z,994.03
2023-01-08T09:20:19.720Z,993.96
2023-01-08T09:21:18.733Z,993.95
2023-01-08T09:22:18.694Z,993.91
2023-01-08T09:23:18.682Z,993.92
2023-01-08T09:24:19.686Z,993.94
2023-01-08T09:25:19.641Z,993.91
2023-01-08T09:26:18.716Z,993.95
2023-01-08T09:27:18.621Z,994.04
2023-01-08T09:28:18.629Z,994.03
2023-01-08T09:29:18.643Z,994.00
2023-01-08T09:30:18.603Z,993.96
2023-01-08T09:31:18.667Z,993.97
2023-01-08T09:32:18.607Z,994.01
2023-01-08T09:33:18.560Z,993.95
2023-01-08T09:34:18.659Z,993.90
2023-01-08T09:35:18.565Z,993.87
2023-01-08T09:36:19.063Z,993.86
2023-01-08T09:37:18.541Z,993.86
2023-01-08T09:38:18.501Z,993.82
2023-01-08T09:39:19.518Z,993.81
2023-01-08T09:40:18.505Z,993.80
2023-01-08T09:41:18.473Z,993.89
2023-01-08T09:42:19.490Z,993.90
2023-01-08T09:43:18.469Z,993.98
2023-01-08T09:44:18.437Z,994.03
2023-01-08T09:45:18.456Z,994.03
2023-01-08T09:46:18.472Z,994.05
2023-01-08T09:47:18.409Z,994.04
2023-01-08T09:48:18.409Z,993.99
2023-01-08T09:49:26.049Z,994.04
2023-01-08T09:50:18.372Z,993.96
2023-01-08T09:51:19.369Z,993.97
2023-01-08T09:52:18.387Z,993.95
2023-01-08T09:53:19.369Z,993.92
2023-01-08T09:54:18.358Z,994.02
2023-01-08T09:55:18.326Z,993.97
2023-01-08T09:56:18.336Z,994.04
2023-01-08T09:57:19.290Z,994.06
2023-01-08T09:58:18.332Z,994.09
2023-01-08T09:59:18.298Z,994.05
2023-01-08T10:00:18.285Z,994.07
2023-01-08T10:01:18.384Z,994.03
2023-01-08T10:02:18.403Z,993.99
2023-01-08T10:03:19.254Z,994.02
2023-01-08T10:04:19.247Z,993.96
2023-01-08T10:05:18.359Z,993.93
2023-01-08T10:06:18.214Z,993.87
2023-01-08T10:07:18.195Z,993.89
2023-01-08T10:08:18.167Z,993.82
2023-01-08T10:09:18.187Z,993.82
2023-01-08T10:10:19.209Z,993.72
2023-01-08T10:11:18.164Z,993.79
2023-01-08T10:12:19.131Z,993.80
2023-01-08T10:13:19.126Z,993.81
2023-01-08T10:14:19.100Z,993.79
2023-01-08T10:15:18.120Z,993.70
2023-01-08T10:16:18.637Z,993.62
2023-01-08T10:17:18.115Z,993.65
2023-01-08T10:18:18.060Z,993.68
2023-01-08T10:19:18.056Z,993.73
2023-01-08T10:20:19.138Z,993.68
2023-01-08T10:21:18.155Z,993.69
2023-01-08T10:22:18.028Z,993.65
2023-01-08T10:23:18.015Z,993.64
2023-01-08T10:24:17.999Z,993.67
2023-01-08T10:25:17.974Z,993.67
2023-01-08T10:26:19.001Z,993.63
2023-01-08T10:27:17.967Z,993.60
2023-01-08T10:28:17.960Z,993.62
2023-01-08T10:29:17.953Z,993.62
2023-01-08T10:30:17.938Z,993.64
2023-01-08T10:31:17.944Z,993.60
2023-01-08T10:32:17.936Z,993.60
2023-01-08T10:33:17.938Z,993.57
2023-01-08T10:34:17.900Z,993.64
2023-01-08T10:35:17.869Z,993.65
2023-01-08T10:36:17.869Z,993.61
2023-01-08T10:37:17.962Z,993.64
2023-01-08T10:38:17.845Z,993.65
2023-01-08T10:39:17.862Z,993.55
2023-01-08T10:40:18.819Z,993.56
2023-01-08T10:41:17.795Z,993.49
2023-01-08T10:42:18.831Z,993.45
2023-01-08T10:43:17.778Z,993.49
2023-01-08T10:44:18.787Z,993.51
2023-01-08T10:45:17.769Z,993.55
2023-01-08T10:46:18.786Z,993.54
2023-01-08T10:47:18.730Z,993.51
2023-01-08T10:48:18.757Z,993.52
2023-01-08T10:49:17.729Z,993.47
2023-01-08T10:50:17.703Z,993.39
2023-01-08T10:51:17.715Z,993.45
2023-01-08T10:52:17.706Z,993.42
2023-01-08T10:53:17.679Z,993.42
2023-01-08T10:54:17.681Z,993.39
2023-01-08T10:55:17.653Z,993.35
2023-01-08T10:56:17.643Z,993.36
2023-01-08T10:57:17.647Z,993.31
2023-01-08T10:58:17.637Z,993.36
2023-01-08T10:59:18.652Z,993.40
2023-01-08T11:00:17.595Z,993.31
2023-01-08T11:01:17.740Z,993.38
2023-01-08T11:02:18.620Z,993.33
2023-01-08T11:03:17.570Z,993.28
2023-01-08T11:04:17.543Z,993.35
2023-01-08T11:05:17.551Z,993.29
2023-01-08T11:06:17.524Z,993.32
2023-01-08T11:07:18.545Z,993.28
2023-01-08T11:08:17.517Z,993.22
2023-01-08T11:09:17.503Z,993.22
2023-01-08T11:10:17.526Z,993.14
2023-01-08T11:11:17.470Z,993.15
2023-01-08T11:12:18.450Z,993.13
2023-01-08T11:13:17.456Z,993.06
2023-01-08T11:14:17.441Z,993.08
2023-01-08T11:15:17.438Z,993.03
2023-01-08T11:16:17.426Z,993.05
2023-01-08T11:17:17.416Z,993.10
2023-01-08T11:18:17.406Z,993.08
2023-01-08T11:19:18.591Z,993.15
2023-01-08T11:20:17.380Z,993.15
2023-01-08T11:21:17.385Z,993.15
2023-01-08T11:22:17.337Z,993.08
2023-01-08T11:23:17.344Z,993.03
2023-01-08T11:24:17.345Z,993.08
2023-01-08T11:25:17.372Z,993.04
2023-01-08T11:26:17.327Z,992.99
2023-01-08T11:27:17.332Z,993.00
2023-01-08T11:28:17.325Z,993.04
2023-01-08T11:29:17.277Z,992.95
2023-01-08T11:30:17.274Z,992.97
2023-01-08T11:31:17.307Z,992.85
2023-01-08T11:32:18.246Z,992.80
2023-01-08T11:33:18.231Z,992.75
2023-01-08T11:34:17.222Z,992.69
2023-01-08T11:35:17.231Z,992.68
2023-01-08T11:36:18.188Z,992.72
2023-01-08T11:37:17.199Z,992.68
2023-01-08T11:38:17.200Z,992.68
2023-01-08T11:39:17.190Z,992.71
2023-01-08T11:40:17.163Z,992.69
2023-01-08T11:41:18.165Z,992.68
2023-01-08T11:42:17.122Z,992.72
2023-01-08T11:43:17.155Z,992.67
2023-01-08T11:44:17.124Z,992.69
2023-01-08T11:45:17.111Z,992.72
2023-01-08T11:46:17.089Z,992.65
2023-01-08T11:47:18.082Z,992.68
2023-01-08T11:48:17.064Z,992.66
2023-01-08T11:49:17.060Z,992.68
2023-01-08T11:50:17.031Z,992.63
2023-01-08T11:51:18.074Z,992.61
2023-01-08T11:52:18.044Z,992.66
2023-01-08T11:53:16.996Z,992.60
2023-01-08T11:54:18.014Z,992.61
2023-01-08T11:55:16.997Z,992.58
2023-01-08T11:56:17.004Z,992.55
2023-01-08T11:57:16.995Z,992.51
2023-01-08T11:58:16.948Z,992.50
2023-01-08T11:59:16.952Z,992.49
2023-01-08T12:00:16.925Z,992.47
2023-01-08T12:01:16.942Z,992.40
2023-01-08T12:02:16.962Z,992.40
2023-01-08T12:03:16.921Z,992.42
2023-01-08T12:04:16.910Z,992.41
2023-01-08T12:05:16.885Z,992.48
2023-01-08T12:06:16.865Z,992.41
2023-01-08T12:07:16.877Z,992.44
2023-01-08T12:08:16.832Z,992.41
2023-01-08T12:09:16.830Z,992.38
2023-01-08T12:10:17.870Z,992.33
2023-01-08T12:11:16.792Z,992.37
2023-01-08T12:12:17.781Z,992.41
2023-01-08T12:13:16.817Z,992.40
2023-01-08T12:14:16.778Z,992.41
2023-01-08T12:15:16.767Z,992.35
2023-01-08T12:16:16.804Z,992.39
2023-01-08T12:17:16.732Z,992.40
2023-01-08T12:18:16.744Z,992.37
2023-01-08T12:19:16.708Z,992.38
2023-01-08T12:20:17.812Z,992.40
2023-01-08T12:21:16.699Z,992.42
2023-01-08T12:22:16.671Z,992.38
2023-01-08T12:23:16.690Z,992.36
2023-01-08T12:24:16.678Z,992.37
2023-01-08T12:25:16.693Z,992.39
2023-01-08T12:26:17.685Z,992.37
2023-01-08T12:27:16.618Z,992.38
2023-01-08T12:28:17.628Z,992.39